Santa Carlotta — A8IU6 — position and weather

sailwx.info

Track history (hours):
 
Tides and Currents Weather Stations Pressure Air Temp Water Temp Dewpoint Dewpoint Depression Visibility Wind Speed Wind Dir Waves Ship Positions

Santa Carlotta

Last reported at 2018-Apr-26 11:29 UTC. Time now 2018-Apr-26 11:40 UTC.
Position N 43°34' E 010°18'.

Length 243.2 m; beam 32.2 m; draft 11.5 m.

Type: Ship (hazmat cat A). MMSI: 636015031.

Date/timePositionNaut miles runAvg speedWind from/ knotsBaromVisibWave heightAir tempDewpointWater temp
2018-Apr-26 11:29N 43°34' E 010°18'0 0.0
2018-Apr-26 10:59N 43°34' E 010°18'0 0.0
2018-Apr-26 10:29N 43°34' E 010°18'0 0.0
2018-Apr-26 09:59N 43°34' E 010°18'0 0.0
2018-Apr-26 09:29N 43°34' E 010°18'0 0.0
2018-Apr-26 08:59N 43°34' E 010°18'0 0.5
2018-Apr-26 08:30N 43°34' E 010°18'3 6.7
2018-Apr-26 08:00N 43°32' E 010°16'3 5.9
2018-Apr-26 07:30N 43°29' E 010°13'4 8.1
2018-Apr-26 07:00N 43°25' E 010°11'815.8
2018-Apr-26 06:30N 43°18' E 010°09'816.3
2018-Apr-26 06:00N 43°10' E 010°06'2816.3
2018-Apr-26 04:19N 42°43' E 009°57'516.4
2018-Apr-26 03:59N 42°38' E 009°55'816.1
2018-Apr-26 03:30N 42°30' E 009°56'816.0
2018-Apr-26 03:00N 42°22' E 009°56'714.8
2018-Apr-26 02:30N 42°15' E 010°00'916.2
2018-Apr-26 01:56N 42°10' E 010°11'716.0
2018-Apr-26 01:29N 42°06' E 010°18'1016.2
2018-Apr-26 00:53N 42°00' E 010°29'716.2
2018-Apr-26 00:28N 41°56' E 010°37'816.3
2018-Apr-25 23:58N 41°52' E 010°46'716.0
2018-Apr-25 23:30N 41°47' E 010°54'816.0
2018-Apr-25 23:00N 41°43' E 011°03'816.0
2018-Apr-25 22:30N 41°38' E 011°12'1116.0
2018-Apr-25 21:50N 41°32' E 011°24'516.3
2018-Apr-25 21:30N 41°29' E 011°29'816.1
2018-Apr-25 21:00N 41°25' E 011°38'816.2
2018-Apr-25 20:30N 41°20' E 011°47'816.1
2018-Apr-25 20:00N 41°16' E 011°56'816.2
2018-Apr-25 19:30N 41°11' E 012°05'816.0
2018-Apr-25 19:00N 41°07' E 012°14'3116.2
2018-Apr-25 17:05N 40°49' E 012°48'116.3
2018-Apr-25 17:00N 40°49' E 012°50'816.1
2018-Apr-25 16:30N 40°46' E 012°60'816.3
2018-Apr-25 16:00N 40°44' E 013°10'816.2
2018-Apr-25 15:30N 40°41' E 013°20'816.3
2018-Apr-25 15:00N 40°39' E 013°30'816.3
2018-Apr-25 14:30N 40°36' E 013°40'816.2
2018-Apr-25 14:00N 40°34' E 013°51'816.1
2018-Apr-25 13:30N 40°31' E 014°01'816.2
2018-Apr-25 13:00N 40°29' E 014°11'815.9
2018-Apr-25 12:30N 40°31' E 014°21'816.2
2018-Apr-25 11:59N 40°34' E 014°31'9 0.6
2018-Apr-24 20:25N 40°36' E 014°43'5 5.7
2018-Apr-24 19:36N 40°31' E 014°42'216.5
2018-Apr-24 19:27N 40°29' E 014°42'817.0
2018-Apr-24 19:00N 40°21' E 014°42'8619.3
2018-Apr-24 14:33N 38°60' E 015°20'120.5
2018-Apr-24 14:30N 38°59' E 015°21'1120.3
2018-Apr-24 13:58N 38°49' E 015°27'1220.0
2018-Apr-24 13:22N 38°39' E 015°34'919.6
2018-Apr-24 12:55N 38°30' E 015°38'819.6
2018-Apr-24 12:30N 38°22' E 015°41'816.0
2018-Apr-24 12:00N 38°15' E 015°39'713.1
2018-Apr-24 11:30N 38°08' E 015°37'5 9.0
2018-Apr-24 10:54N 38°03' E 015°36'4 9.5
2018-Apr-24 10:30N 37°59' E 015°36'914.5
2018-Apr-24 09:52N 37°50' E 015°35'1218.7
2018-Apr-24 09:12N 37°37' E 015°35'418.9
2018-Apr-24 08:59N 37°33' E 015°35'1219.1
2018-Apr-24 08:22N 37°22' E 015°34'1719.8
2018-Apr-24 07:29N 37°04' E 015°33'919.4
2018-Apr-24 07:00N 36°55' E 015°31'1019.6
2018-Apr-24 06:30N 36°46' E 015°26'1019.8
2018-Apr-24 06:00N 36°37' E 015°20'1019.8
2018-Apr-24 05:30N 36°29' E 015°14'1019.5
2018-Apr-24 04:59N 36°21' E 015°06'919.5
2018-Apr-24 04:30N 36°14' E 014°58'1412.0
2018-Apr-24 03:21N 36°03' E 014°48'513.7
2018-Apr-24 02:59N 35°59' E 014°44'917.8
2018-Apr-24 02:30N 35°52' E 014°38'5 9.8
2018-Apr-24 02:00N 35°48' E 014°34'1 1.6
2018-Apr-24 01:06N 35°49' E 014°32'0 0.0
2018-Apr-23 22:30N 35°49' E 014°32'0 0.0
2018-Apr-23 22:00N 35°49' E 014°32'0 0.0
2018-Apr-23 14:51N 35°49' E 014°32'0 0.0
2018-Apr-23 14:30N 35°49' E 014°32'0 0.0
2018-Apr-23 14:00N 35°49' E 014°32'0 0.0
2018-Apr-23 13:24N 35°49' E 014°32'0 0.0
2018-Apr-23 12:24N 35°49' E 014°32'0 0.0
2018-Apr-23 12:00N 35°49' E 014°32'0 0.0
2018-Apr-23 11:18N 35°49' E 014°32'0 0.0
2018-Apr-23 11:00N 35°49' E 014°32'0 0.0
2018-Apr-23 09:48N 35°49' E 014°32'0 0.0
2018-Apr-23 09:15N 35°49' E 014°32'0 0.0
2018-Apr-23 09:00N 35°49' E 014°32'0 0.0
2018-Apr-23 08:27N 35°49' E 014°32'0 0.0
2018-Apr-23 08:00N 35°49' E 014°32'0 0.0
2018-Apr-23 07:24N 35°49' E 014°32'0 0.0
2018-Apr-23 07:00N 35°49' E 014°32'0 0.0
2018-Apr-23 05:30N 35°49' E 014°32'  
2018-Apr-19 20:12N 36°01' W 005°04'314.8
2018-Apr-19 19:59N 36°01' W 005°07'715.0
2018-Apr-19 19:30N 36°01' W 005°16'612.2
2018-Apr-19 19:00N 36°05' W 005°23'4 7.1
2018-Apr-19 18:30N 36°07' W 005°25'0 0.8
2018-Apr-19 18:00N 36°08' W 005°25'0 0.0
2018-Apr-19 16:36N 36°08' W 005°25'0 0.1
2018-Apr-19 16:30N 36°08' W 005°25'0 0.0
2018-Apr-19 16:00N 36°08' W 005°25'0 0.0
2018-Apr-19 15:15N 36°08' W 005°25'0 0.1
2018-Apr-19 15:00N 36°08' W 005°25'0 0.0
2018-Apr-19 14:21N 36°08' W 005°25'0 0.0
2018-Apr-19 13:51N 36°08' W 005°25'0 0.0
2018-Apr-19 13:24N 36°08' W 005°25'0 0.1
2018-Apr-19 13:00N 36°08' W 005°25'0 0.0
2018-Apr-19 10:33N 36°08' W 005°25'0 0.0
2018-Apr-19 10:30N 36°08' W 005°25'0 0.0
2018-Apr-19 09:54N 36°08' W 005°25'0 0.0
2018-Apr-19 09:18N 36°08' W 005°25'0 0.0
2018-Apr-19 09:00N 36°08' W 005°25'0 0.0
2018-Apr-19 08:24N 36°08' W 005°25'0 0.0
2018-Apr-19 08:00N 36°08' W 005°25'0 0.0
2018-Apr-19 07:24N 36°08' W 005°25'0 0.0
2018-Apr-19 07:00N 36°08' W 005°25'0 0.0
2018-Apr-19 04:54N 36°08' W 005°25'0 0.0
2018-Apr-19 04:30N 36°08' W 005°25'0 0.0
2018-Apr-19 03:54N 36°08' W 005°25'0 0.0
2018-Apr-19 03:30N 36°08' W 005°25'0 0.0
2018-Apr-19 02:24N 36°08' W 005°25'0 0.0
2018-Apr-19 02:00N 36°08' W 005°25'0 0.0
2018-Apr-19 01:30N 36°08' W 005°25'0 0.0
2018-Apr-19 01:00N 36°08' W 005°25'0 0.0
2018-Apr-19 00:30N 36°08' W 005°25'0 0.0
2018-Apr-18 23:24N 36°08' W 005°25'0 0.0
2018-Apr-18 23:00N 36°08' W 005°25'1 2.6
2018-Apr-18 22:30N 36°08' W 005°24'2 5.0
2018-Apr-18 22:00N 36°06' W 005°23'5 5.7
2018-Apr-18 21:04N 36°05' W 005°17'0 6.4
2018-Apr-18 21:00N 36°05' W 005°16'6 9.2
2018-Apr-18 20:24N 36°06' W 005°10'5 0.2
2018-Apr-17 22:12N 36°08' W 005°04'411.8
2018-Apr-17 21:49N 36°05' W 005°09'515.0
2018-Apr-17 21:30N 36°03' W 005°13'612.5
2018-Apr-17 21:00N 36°00' W 005°20'713.3
2018-Apr-17 20:30N 35°58' W 005°28'4416.8
2018-Apr-17 17:54N 35°54' W 006°22'  
Track history (hours):
 
Tides and Currents Weather Stations Pressure Air Temp Water Temp Dewpoint Dewpoint Depression Visibility Wind Speed Wind Dir Waves Ship Positions

Santa Carlotta

Last reported at 2018-Apr-26 11:29 UTC. Time now 2018-Apr-26 11:40 UTC.
Position N 43°34' E 010°18'.

Length 243.2 m; beam 32.2 m; draft 11.5 m.

Type: Ship (hazmat cat A). MMSI: 636015031.

Date/timePositionNaut miles runAvg speedWind from/ knotsBaromVisibWave heightAir tempDewpointWater temp
2018-Apr-26 11:29N 43°34' E 010°18'0 0.0
2018-Apr-26 10:59N 43°34' E 010°18'0 0.0
2018-Apr-26 10:29N 43°34' E 010°18'0 0.0
2018-Apr-26 09:59N 43°34' E 010°18'0 0.0
2018-Apr-26 09:29N 43°34' E 010°18'0 0.0
2018-Apr-26 08:59N 43°34' E 010°18'0 0.5
2018-Apr-26 08:30N 43°34' E 010°18'3 6.7
2018-Apr-26 08:00N 43°32' E 010°16'3 5.9
2018-Apr-26 07:30N 43°29' E 010°13'4 8.1
2018-Apr-26 07:00N 43°25' E 010°11'815.8
2018-Apr-26 06:30N 43°18' E 010°09'816.3
2018-Apr-26 06:00N 43°10' E 010°06'2816.3
2018-Apr-26 04:19N 42°43' E 009°57'516.4
2018-Apr-26 03:59N 42°38' E 009°55'816.1
2018-Apr-26 03:30N 42°30' E 009°56'816.0
2018-Apr-26 03:00N 42°22' E 009°56'714.8
2018-Apr-26 02:30N 42°15' E 010°00'916.2
2018-Apr-26 01:56N 42°10' E 010°11'716.0
2018-Apr-26 01:29N 42°06' E 010°18'1016.2
2018-Apr-26 00:53N 42°00' E 010°29'716.2
2018-Apr-26 00:28N 41°56' E 010°37'816.3
2018-Apr-25 23:58N 41°52' E 010°46'716.0
2018-Apr-25 23:30N 41°47' E 010°54'816.0
2018-Apr-25 23:00N 41°43' E 011°03'816.0
2018-Apr-25 22:30N 41°38' E 011°12'1116.0
2018-Apr-25 21:50N 41°32' E 011°24'516.3
2018-Apr-25 21:30N 41°29' E 011°29'816.1
2018-Apr-25 21:00N 41°25' E 011°38'816.2
2018-Apr-25 20:30N 41°20' E 011°47'816.1
2018-Apr-25 20:00N 41°16' E 011°56'816.2
2018-Apr-25 19:30N 41°11' E 012°05'816.0
2018-Apr-25 19:00N 41°07' E 012°14'3116.2
2018-Apr-25 17:05N 40°49' E 012°48'116.3
2018-Apr-25 17:00N 40°49' E 012°50'816.1
2018-Apr-25 16:30N 40°46' E 012°60'816.3
2018-Apr-25 16:00N 40°44' E 013°10'816.2
2018-Apr-25 15:30N 40°41' E 013°20'816.3
2018-Apr-25 15:00N 40°39' E 013°30'816.3
2018-Apr-25 14:30N 40°36' E 013°40'816.2
2018-Apr-25 14:00N 40°34' E 013°51'816.1
2018-Apr-25 13:30N 40°31' E 014°01'816.2
2018-Apr-25 13:00N 40°29' E 014°11'815.9
2018-Apr-25 12:30N 40°31' E 014°21'816.2
2018-Apr-25 11:59N 40°34' E 014°31'9 0.6
2018-Apr-24 20:25N 40°36' E 014°43'5 5.7
2018-Apr-24 19:36N 40°31' E 014°42'216.5
2018-Apr-24 19:27N 40°29' E 014°42'817.0
2018-Apr-24 19:00N 40°21' E 014°42'8619.3
2018-Apr-24 14:33N 38°60' E 015°20'120.5
2018-Apr-24 14:30N 38°59' E 015°21'1120.3
2018-Apr-24 13:58N 38°49' E 015°27'1220.0
2018-Apr-24 13:22N 38°39' E 015°34'919.6
2018-Apr-24 12:55N 38°30' E 015°38'819.6
2018-Apr-24 12:30N 38°22' E 015°41'816.0
2018-Apr-24 12:00N 38°15' E 015°39'713.1
2018-Apr-24 11:30N 38°08' E 015°37'5 9.0
2018-Apr-24 10:54N 38°03' E 015°36'4 9.5
2018-Apr-24 10:30N 37°59' E 015°36'914.5
2018-Apr-24 09:52N 37°50' E 015°35'1218.7
2018-Apr-24 09:12N 37°37' E 015°35'418.9
2018-Apr-24 08:59N 37°33' E 015°35'1219.1
2018-Apr-24 08:22N 37°22' E 015°34'1719.8
2018-Apr-24 07:29N 37°04' E 015°33'919.4
2018-Apr-24 07:00N 36°55' E 015°31'1019.6
2018-Apr-24 06:30N 36°46' E 015°26'1019.8
2018-Apr-24 06:00N 36°37' E 015°20'1019.8
2018-Apr-24 05:30N 36°29' E 015°14'1019.5
2018-Apr-24 04:59N 36°21' E 015°06'919.5
2018-Apr-24 04:30N 36°14' E 014°58'1412.0
2018-Apr-24 03:21N 36°03' E 014°48'513.7
2018-Apr-24 02:59N 35°59' E 014°44'917.8
2018-Apr-24 02:30N 35°52' E 014°38'5 9.8
2018-Apr-24 02:00N 35°48' E 014°34'1 1.6
2018-Apr-24 01:06N 35°49' E 014°32'0 0.0
2018-Apr-23 22:30N 35°49' E 014°32'0 0.0
2018-Apr-23 22:00N 35°49' E 014°32'0 0.0
2018-Apr-23 14:51N 35°49' E 014°32'0 0.0
2018-Apr-23 14:30N 35°49' E 014°32'0 0.0
2018-Apr-23 14:00N 35°49' E 014°32'0 0.0
2018-Apr-23 13:24N 35°49' E 014°32'0 0.0
2018-Apr-23 12:24N 35°49' E 014°32'0 0.0
2018-Apr-23 12:00N 35°49' E 014°32'0 0.0
2018-Apr-23 11:18N 35°49' E 014°32'0 0.0
2018-Apr-23 11:00N 35°49' E 014°32'0 0.0
2018-Apr-23 09:48N 35°49' E 014°32'0 0.0
2018-Apr-23 09:15N 35°49' E 014°32'0 0.0
2018-Apr-23 09:00N 35°49' E 014°32'0 0.0
2018-Apr-23 08:27N 35°49' E 014°32'0 0.0
2018-Apr-23 08:00N 35°49' E 014°32'0 0.0
2018-Apr-23 07:24N 35°49' E 014°32'0 0.0
2018-Apr-23 07:00N 35°49' E 014°32'0 0.0
2018-Apr-23 05:30N 35°49' E 014°32'  
2018-Apr-19 20:12N 36°01' W 005°04'314.8
2018-Apr-19 19:59N 36°01' W 005°07'715.0
2018-Apr-19 19:30N 36°01' W 005°16'612.2
2018-Apr-19 19:00N 36°05' W 005°23'4 7.1
2018-Apr-19 18:30N 36°07' W 005°25'0 0.8
2018-Apr-19 18:00N 36°08' W 005°25'0 0.0
2018-Apr-19 16:36N 36°08' W 005°25'0 0.1
2018-Apr-19 16:30N 36°08' W 005°25'0 0.0
2018-Apr-19 16:00N 36°08' W 005°25'0 0.0
2018-Apr-19 15:15N 36°08' W 005°25'0 0.1
2018-Apr-19 15:00N 36°08' W 005°25'0 0.0
2018-Apr-19 14:21N 36°08' W 005°25'0 0.0
2018-Apr-19 13:51N 36°08' W 005°25'0 0.0
2018-Apr-19 13:24N 36°08' W 005°25'0 0.1
2018-Apr-19 13:00N 36°08' W 005°25'0 0.0
2018-Apr-19 10:33N 36°08' W 005°25'0 0.0
2018-Apr-19 10:30N 36°08' W 005°25'0 0.0
2018-Apr-19 09:54N 36°08' W 005°25'0 0.0
2018-Apr-19 09:18N 36°08' W 005°25'0 0.0
2018-Apr-19 09:00N 36°08' W 005°25'0 0.0
2018-Apr-19 08:24N 36°08' W 005°25'0 0.0
2018-Apr-19 08:00N 36°08' W 005°25'0 0.0
2018-Apr-19 07:24N 36°08' W 005°25'0 0.0
2018-Apr-19 07:00N 36°08' W 005°25'0 0.0
2018-Apr-19 04:54N 36°08' W 005°25'0 0.0
2018-Apr-19 04:30N 36°08' W 005°25'0 0.0
2018-Apr-19 03:54N 36°08' W 005°25'0 0.0
2018-Apr-19 03:30N 36°08' W 005°25'0 0.0
2018-Apr-19 02:24N 36°08' W 005°25'0 0.0
2018-Apr-19 02:00N 36°08' W 005°25'0 0.0
2018-Apr-19 01:30N 36°08' W 005°25'0 0.0
2018-Apr-19 01:00N 36°08' W 005°25'0 0.0
2018-Apr-19 00:30N 36°08' W 005°25'0 0.0
2018-Apr-18 23:24N 36°08' W 005°25'0 0.0
2018-Apr-18 23:00N 36°08' W 005°25'1 2.6
2018-Apr-18 22:30N 36°08' W 005°24'2 5.0
2018-Apr-18 22:00N 36°06' W 005°23'5 5.7
2018-Apr-18 21:04N 36°05' W 005°17'0 6.4
2018-Apr-18 21:00N 36°05' W 005°16'6 9.2
2018-Apr-18 20:24N 36°06' W 005°10'5 0.2
2018-Apr-17 22:12N 36°08' W 005°04'411.8
2018-Apr-17 21:49N 36°05' W 005°09'515.0
2018-Apr-17 21:30N 36°03' W 005°13'612.5
2018-Apr-17 21:00N 36°00' W 005°20'713.3
2018-Apr-17 20:30N 35°58' W 005°28'4416.8
2018-Apr-17 17:54N 35°54' W 006°22'  

Dump ship's entire track history